createdAt,value
2017-11-08T00:00:45.891Z,51.50
2017-11-08T00:03:14.852Z,51.70
2017-11-08T00:05:42.951Z,51.60
2017-11-08T00:08:13.836Z,51.70
2017-11-08T00:10:41.927Z,51.70
2017-11-08T00:13:10.019Z,51.90
2017-11-08T00:15:38.098Z,51.80
2017-11-08T00:18:06.205Z,51.70
2017-11-08T00:20:35.060Z,51.90
2017-11-08T00:23:03.254Z,51.80
2017-11-08T00:25:31.546Z,51.70
2017-11-08T00:28:00.396Z,51.80
2017-11-08T00:30:28.481Z,51.70
2017-11-08T00:32:56.567Z,51.80
2017-11-08T00:35:24.665Z,52.00
2017-11-08T00:37:52.765Z,51.80
2017-11-08T00:40:20.850Z,52.30
2017-11-08T00:42:48.927Z,52.50
2017-11-08T00:45:17.140Z,52.40
2017-11-08T00:47:45.993Z,52.30
2017-11-08T00:50:14.085Z,52.20
2017-11-08T00:52:42.166Z,52.40
2017-11-08T00:55:10.243Z,52.60
2017-11-08T00:57:52.813Z,52.60
2017-11-08T01:00:20.900Z,52.60
2017-11-08T01:02:48.991Z,52.60
2017-11-08T01:05:17.332Z,52.40
2017-11-08T01:07:45.424Z,53.30
2017-11-08T01:10:13.503Z,52.50
2017-11-08T01:12:41.619Z,52.60
2017-11-08T01:15:09.712Z,52.50
2017-11-08T01:17:37.822Z,52.60
2017-11-08T01:20:06.272Z,52.40
2017-11-08T01:22:34.370Z,52.60
2017-11-08T01:25:02.448Z,52.60
2017-11-08T01:27:30.551Z,52.80
2017-11-08T01:29:59.397Z,52.80
2017-11-08T01:32:27.476Z,52.70
2017-11-08T01:34:55.557Z,52.70
2017-11-08T01:37:26.595Z,52.10
2017-11-08T01:39:54.681Z,51.80
2017-11-08T01:42:22.768Z,52.00
2017-11-08T01:44:50.850Z,52.20
2017-11-08T01:47:19.711Z,52.90
2017-11-08T01:49:47.810Z,53.50
2017-11-08T01:52:16.837Z,52.90
2017-11-08T01:54:44.948Z,52.90
2017-11-08T01:57:13.032Z,52.80
2017-11-08T01:59:41.143Z,52.80
2017-11-08T02:02:10.007Z,52.70
2017-11-08T02:04:38.115Z,52.60
2017-11-08T02:07:06.197Z,52.70
2017-11-08T02:09:34.278Z,52.60
2017-11-08T02:12:02.361Z,52.90
2017-11-08T02:14:30.445Z,52.70
2017-11-08T02:16:58.548Z,52.60
2017-11-08T02:19:26.678Z,52.60
2017-11-08T02:21:54.809Z,52.90
2017-11-08T02:24:23.651Z,52.90
2017-11-08T02:26:52.577Z,52.80
2017-11-08T02:29:21.436Z,53.00
2017-11-08T02:31:49.537Z,52.90
2017-11-08T02:34:17.632Z,52.40
2017-11-08T02:36:46.489Z,52.00
2017-11-08T02:39:14.576Z,52.00
2017-11-08T02:41:42.665Z,51.90
2017-11-08T02:44:11.527Z,51.90
2017-11-08T02:46:39.644Z,51.90
2017-11-08T02:49:07.711Z,52.40
2017-11-08T02:51:35.837Z,52.40
2017-11-08T02:54:03.907Z,53.50
2017-11-08T02:56:31.998Z,52.20
2017-11-08T02:59:00.097Z,52.20
2017-11-08T03:01:28.980Z,52.40
2017-11-08T03:03:57.829Z,52.50
2017-11-08T03:06:25.924Z,52.50
2017-11-08T03:08:54.040Z,52.70
2017-11-08T03:11:22.146Z,52.80
2017-11-08T03:13:50.229Z,53.00
2017-11-08T03:16:18.336Z,53.00
2017-11-08T03:18:47.180Z,53.30
2017-11-08T03:21:15.280Z,53.20
2017-11-08T03:23:43.347Z,52.30
2017-11-08T03:26:11.453Z,52.20
2017-11-08T03:28:40.295Z,52.70
2017-11-08T03:31:08.389Z,52.70
2017-11-08T03:33:36.472Z,52.70
2017-11-08T03:36:05.324Z,53.10
2017-11-08T03:38:33.407Z,52.50
2017-11-08T03:41:01.513Z,52.90
2017-11-08T03:43:29.963Z,52.00
2017-11-08T03:45:58.052Z,52.20
2017-11-08T03:48:26.132Z,52.30
2017-11-08T03:50:55.005Z,52.60
2017-11-08T03:53:23.098Z,52.50
2017-11-08T03:55:51.181Z,52.90
2017-11-08T03:58:20.028Z,52.80
2017-11-08T04:00:48.145Z,52.80
2017-11-08T04:03:16.998Z,52.20
2017-11-08T04:05:45.078Z,52.20
2017-11-08T04:08:13.162Z,52.30
2017-11-08T04:10:41.246Z,52.80
2017-11-08T04:13:09.331Z,53.10
2017-11-08T04:15:38.174Z,53.80
2017-11-08T04:18:06.284Z,53.80
2017-11-08T04:20:35.123Z,53.70
2017-11-08T04:23:03.207Z,53.00
2017-11-08T04:25:31.277Z,52.90
2017-11-08T04:27:59.360Z,53.00
2017-11-08T04:30:27.432Z,53.20
2017-11-08T04:32:55.519Z,53.20
2017-11-08T04:35:23.596Z,53.00
2017-11-08T04:37:51.679Z,53.00
2017-11-08T04:40:19.762Z,53.10
2017-11-08T04:42:48.611Z,53.10
2017-11-08T04:45:16.684Z,52.90
2017-11-08T04:47:44.776Z,53.00
2017-11-08T04:50:12.846Z,52.90
2017-11-08T04:52:40.938Z,52.80
2017-11-08T04:55:09.776Z,52.70
2017-11-08T04:57:38.629Z,52.20
2017-11-08T05:00:07.516Z,51.80
2017-11-08T05:02:36.367Z,51.70
2017-11-08T05:05:04.450Z,51.70
2017-11-08T05:07:32.531Z,51.80
2017-11-08T05:10:00.620Z,51.70
2017-11-08T05:12:29.484Z,51.60
2017-11-08T05:14:57.558Z,51.50
2017-11-08T05:17:25.639Z,51.60
2017-11-08T05:19:53.711Z,49.80
2017-11-08T05:22:21.796Z,50.00
2017-11-08T05:24:49.875Z,49.80
2017-11-08T05:27:18.766Z,50.00
2017-11-08T05:29:47.604Z,50.10
2017-11-08T05:32:15.721Z,50.10
2017-11-08T05:34:43.798Z,49.80
2017-11-08T05:37:11.873Z,49.60
2017-11-08T05:39:39.948Z,48.80
2017-11-08T05:42:08.011Z,48.80
2017-11-08T05:44:36.102Z,47.30
2017-11-08T05:47:04.937Z,47.80
2017-11-08T05:49:33.018Z,47.70
2017-11-08T05:52:01.097Z,48.20
2017-11-08T05:54:29.172Z,48.30
2017-11-08T05:56:57.243Z,48.40
2017-11-08T05:59:25.338Z,46.60
2017-11-08T06:01:53.413Z,44.60
2017-11-08T06:04:21.491Z,44.70
2017-11-08T06:06:49.549Z,44.90
2017-11-08T06:09:17.631Z,44.80
2017-11-08T06:11:45.700Z,44.90
2017-11-08T06:14:13.780Z,44.60
2017-11-08T06:16:42.630Z,44.80
2017-11-08T06:19:10.713Z,44.70
2017-11-08T06:21:38.786Z,44.70
2017-11-08T06:24:06.869Z,44.30
2017-11-08T06:26:34.938Z,44.20
2017-11-08T06:29:03.017Z,44.40
2017-11-08T06:31:31.087Z,43.90
2017-11-08T06:33:59.161Z,44.10
2017-11-08T06:36:27.233Z,43.90
2017-11-08T06:38:55.332Z,43.30
2017-11-08T06:41:24.186Z,43.50
2017-11-08T06:43:52.268Z,43.50
2017-11-08T06:46:20.366Z,43.40
2017-11-08T06:48:49.216Z,41.40
2017-11-08T06:51:17.314Z,41.40
2017-11-08T06:53:45.379Z,41.80
2017-11-08T06:56:13.467Z,42.30
2017-11-08T06:58:42.319Z,41.50
2017-11-08T07:01:10.408Z,41.50
2017-11-08T07:03:38.471Z,41.70
2017-11-08T07:06:06.562Z,41.50
2017-11-08T07:08:34.632Z,42.10
2017-11-08T07:11:02.717Z,42.00
2017-11-08T07:13:30.803Z,42.10
2017-11-08T07:15:58.890Z,41.40
2017-11-08T07:18:27.730Z,42.20
2017-11-08T07:20:55.817Z,42.10
2017-11-08T07:23:23.900Z,41.50
2017-11-08T07:25:52.002Z,41.20
2017-11-08T07:28:20.106Z,40.40
2017-11-08T07:30:48.197Z,40.40
2017-11-08T07:33:16.293Z,40.40
2017-11-08T07:35:45.159Z,40.50
2017-11-08T07:38:13.247Z,40.40
2017-11-08T07:40:41.343Z,40.40
2017-11-08T07:43:10.198Z,40.50
2017-11-08T07:45:38.303Z,40.40
2017-11-08T07:48:07.156Z,40.50
2017-11-08T07:50:35.227Z,40.40
2017-11-08T07:53:03.316Z,40.40
2017-11-08T07:55:37.064Z,40.40
2017-11-08T07:58:05.168Z,40.50
2017-11-08T08:00:33.295Z,40.40
2017-11-08T08:03:02.144Z,41.00
2017-11-08T08:05:30.230Z,41.00
2017-11-08T08:07:58.316Z,40.50
2017-11-08T08:10:27.180Z,41.00
2017-11-08T08:12:55.256Z,40.90
2017-11-08T08:15:23.339Z,42.20
2017-11-08T08:17:51.413Z,44.80
2017-11-08T08:20:19.505Z,42.70
2017-11-08T08:22:48.346Z,39.40
2017-11-08T08:25:17.315Z,40.00
2017-11-08T08:27:45.379Z,39.80
2017-11-08T08:30:13.476Z,40.80
2017-11-08T08:32:41.556Z,38.80
2017-11-08T08:35:10.405Z,39.60
2017-11-08T08:37:38.482Z,39.50
2017-11-08T08:40:07.333Z,38.50
2017-11-08T08:42:35.417Z,38.40
2017-11-08T08:45:03.499Z,38.80
2017-11-08T08:47:31.577Z,38.40
2017-11-08T08:50:00.424Z,38.00
2017-11-08T08:52:28.546Z,37.80
2017-11-08T08:54:57.417Z,38.00
2017-11-08T08:57:25.497Z,38.00
2017-11-08T08:59:53.593Z,38.10
2017-11-08T09:02:25.330Z,38.80
2017-11-08T09:04:53.408Z,38.80
2017-11-08T09:07:22.251Z,39.10
2017-11-08T09:09:50.328Z,38.60
2017-11-08T09:12:18.408Z,37.90
2017-11-08T09:14:46.492Z,38.10
2017-11-08T09:17:14.573Z,38.10
2017-11-08T09:19:42.654Z,38.50
2017-11-08T09:22:10.753Z,37.60
2017-11-08T09:24:54.118Z,37.70
2017-11-08T09:27:22.208Z,37.60
2017-11-08T09:29:56.216Z,37.70
2017-11-08T09:32:24.291Z,37.60
2017-11-08T09:34:52.360Z,36.70
2017-11-08T09:37:26.066Z,37.00
2017-11-08T09:39:54.136Z,37.40
2017-11-08T09:42:22.228Z,37.70
2017-11-08T09:44:50.316Z,38.50
2017-11-08T09:47:19.180Z,37.40
2017-11-08T09:49:47.260Z,36.80
2017-11-08T09:52:15.336Z,36.40
2017-11-08T09:54:43.426Z,35.60
2017-11-08T09:57:11.497Z,36.60
2017-11-08T09:59:54.060Z,35.60
2017-11-08T10:02:22.144Z,35.70
2017-11-08T10:04:50.228Z,35.70
2017-11-08T10:07:18.319Z,35.00
2017-11-08T10:09:52.451Z,34.80
2017-11-08T10:12:20.464Z,33.50
2017-11-08T10:14:48.556Z,32.90
2017-11-08T10:17:16.711Z,32.50
2017-11-08T10:19:44.731Z,31.80
2017-11-08T10:22:12.804Z,31.00
2017-11-08T10:24:42.635Z,30.80
2017-11-08T10:27:10.725Z,30.60
2017-11-08T10:29:38.811Z,31.60
2017-11-08T10:32:06.892Z,31.70
2017-11-08T10:34:34.986Z,31.80
2017-11-08T10:37:03.067Z,30.00
2017-11-08T10:39:31.152Z,29.70
2017-11-08T10:41:59.251Z,29.80
2017-11-08T10:44:27.307Z,29.60
2017-11-08T10:46:56.157Z,29.30
2017-11-08T10:49:30.625Z,28.70
2017-11-08T10:51:58.712Z,28.60
2017-11-08T10:54:26.794Z,28.30
2017-11-08T10:56:54.876Z,28.90
2017-11-08T10:59:27.930Z,29.20
2017-11-08T11:01:56.780Z,28.60
2017-11-08T11:04:25.639Z,28.40
2017-11-08T11:06:53.735Z,28.40
2017-11-08T11:09:22.708Z,28.40
2017-11-08T11:11:50.804Z,28.50
2017-11-08T11:14:18.888Z,28.90
2017-11-08T11:16:47.744Z,29.30
2017-11-08T11:19:20.632Z,29.20
2017-11-08T11:21:48.729Z,29.50
2017-11-08T11:24:16.856Z,29.60
2017-11-08T11:26:44.925Z,30.00
2017-11-08T11:29:13.777Z,30.00
2017-11-08T11:31:42.636Z,30.00
2017-11-08T11:34:10.721Z,30.00
2017-11-08T11:36:38.809Z,30.40
2017-11-08T11:39:07.674Z,31.50
2017-11-08T11:41:35.761Z,31.30
2017-11-08T11:44:03.849Z,31.40
2017-11-08T11:46:31.945Z,31.50
2017-11-08T11:49:00.789Z,31.60
2017-11-08T11:51:32.787Z,31.50
2017-11-08T11:54:00.870Z,31.50
2017-11-08T11:56:28.963Z,31.50
2017-11-08T11:58:57.044Z,31.50
2017-11-08T12:01:25.142Z,31.40
2017-11-08T12:03:53.222Z,31.50
2017-11-08T12:06:21.340Z,31.40
2017-11-08T12:08:50.182Z,31.40
2017-11-08T12:11:19.180Z,31.40
2017-11-08T12:13:53.649Z,31.50
2017-11-08T12:16:21.747Z,31.40
2017-11-08T12:18:49.832Z,32.10
2017-11-08T12:21:17.946Z,31.50
2017-11-08T12:23:46.036Z,31.40
2017-11-08T12:26:14.902Z,32.20
2017-11-08T12:28:44.864Z,32.20
2017-11-08T12:31:12.981Z,32.30
2017-11-08T12:33:41.153Z,31.70
2017-11-08T12:36:09.942Z,31.00
2017-11-08T12:38:38.040Z,31.00
2017-11-08T12:41:06.132Z,31.70
2017-11-08T12:43:34.972Z,30.60
2017-11-08T12:46:03.085Z,30.50
2017-11-08T12:48:31.266Z,30.00
2017-11-08T12:51:00.140Z,30.10
2017-11-08T12:53:28.221Z,30.10
2017-11-08T12:55:57.085Z,30.40
2017-11-08T12:58:25.188Z,30.40
2017-11-08T13:00:54.044Z,29.70
2017-11-08T13:03:22.149Z,29.70
2017-11-08T13:05:56.624Z,29.40
2017-11-08T13:08:24.710Z,29.40
2017-11-08T13:13:56.092Z,29.70
2017-11-08T13:16:24.189Z,29.70
2017-11-08T13:18:52.266Z,29.90
2017-11-08T13:21:21.132Z,29.20
2017-11-08T13:23:49.208Z,29.20
2017-11-08T13:26:17.330Z,28.20
2017-11-08T13:28:45.432Z,29.20
2017-11-08T13:31:13.518Z,28.50
2017-11-08T13:33:41.605Z,28.70
2017-11-08T13:36:09.688Z,28.20
2017-11-08T13:38:37.794Z,27.20
2017-11-08T13:41:05.889Z,26.50
2017-11-08T13:43:33.968Z,27.00
2017-11-08T13:46:02.057Z,25.60
2017-11-08T13:48:30.154Z,26.30
2017-11-08T13:50:58.234Z,26.80
2017-11-08T13:53:26.332Z,25.70
2017-11-08T13:55:54.410Z,25.60
2017-11-08T13:58:25.306Z,24.50
2017-11-08T14:00:53.388Z,25.00
2017-11-08T14:03:21.481Z,25.10
2017-11-08T14:05:49.556Z,24.40
2017-11-08T14:08:18.409Z,24.70
2017-11-08T14:10:46.496Z,24.70
2017-11-08T14:13:14.580Z,25.50
2017-11-08T14:15:43.412Z,24.30
2017-11-08T14:18:11.505Z,24.30
2017-11-08T14:20:39.580Z,26.10
2017-11-08T14:23:07.676Z,26.40
2017-11-08T14:25:35.755Z,24.70
2017-11-08T14:28:04.620Z,24.70
2017-11-08T14:30:33.610Z,24.80
2017-11-08T14:33:01.704Z,25.80
2017-11-08T14:35:29.789Z,25.80
2017-11-08T14:37:58.672Z,25.90
2017-11-08T14:40:26.744Z,25.80
2017-11-08T14:42:54.834Z,26.30
2017-11-08T14:45:23.689Z,26.40
2017-11-08T14:47:51.774Z,26.40
2017-11-08T14:50:20.648Z,26.50
2017-11-08T14:55:45.400Z,26.30
2017-11-08T14:58:14.258Z,26.90
2017-11-08T15:00:42.340Z,26.90
2017-11-08T15:03:10.448Z,27.20
2017-11-08T15:05:39.293Z,27.40
2017-11-08T15:08:07.373Z,27.30
2017-11-08T15:10:36.240Z,27.20
2017-11-08T15:13:04.372Z,27.20
2017-11-08T15:15:33.227Z,27.60
2017-11-08T15:18:01.308Z,27.40
2017-11-08T15:20:29.395Z,28.00
2017-11-08T15:22:58.640Z,27.80
2017-11-08T15:25:26.728Z,27.80
2017-11-08T15:27:54.814Z,27.70
2017-11-08T15:30:27.749Z,27.70
2017-11-08T15:32:56.631Z,28.00
2017-11-08T15:35:24.702Z,28.00
2017-11-08T15:37:53.576Z,29.50
2017-11-08T15:40:28.057Z,29.50
2017-11-08T15:42:56.166Z,27.70
2017-11-08T15:45:24.273Z,29.10
2017-11-08T15:47:53.116Z,29.10
2017-11-08T15:50:21.201Z,29.10
2017-11-08T15:52:49.276Z,28.10
2017-11-08T15:55:17.613Z,28.20
2017-11-08T15:57:45.692Z,28.80
2017-11-08T16:00:14.556Z,28.70
2017-11-08T16:02:44.089Z,29.50
2017-11-08T16:05:12.229Z,29.50
2017-11-08T16:07:40.270Z,29.60
2017-11-08T16:10:08.384Z,29.00
2017-11-08T16:12:36.491Z,28.60
2017-11-08T16:15:05.012Z,29.70
2017-11-08T16:17:33.910Z,30.60
2017-11-08T16:20:02.751Z,29.40
2017-11-08T16:22:30.836Z,29.20
2017-11-08T16:24:58.913Z,28.90
2017-11-08T16:27:27.002Z,29.20
2017-11-08T16:29:55.085Z,29.20
2017-11-08T16:32:25.473Z,29.10
2017-11-08T16:34:53.556Z,29.60
2017-11-08T16:37:21.702Z,29.80
2017-11-08T16:39:49.781Z,29.80
2017-11-08T16:42:17.873Z,30.20
2017-11-08T16:44:45.948Z,34.20
2017-11-08T16:47:14.037Z,30.30
2017-11-08T16:49:42.118Z,30.70
2017-11-08T16:52:10.189Z,30.60
2017-11-08T16:54:38.274Z,31.30
2017-11-08T16:57:07.116Z,31.40
2017-11-08T16:59:35.200Z,31.30
2017-11-08T17:02:03.290Z,31.40
2017-11-08T17:04:31.364Z,30.20
2017-11-08T17:06:59.444Z,31.40
2017-11-08T17:09:27.528Z,31.40
2017-11-08T17:11:56.372Z,31.20
2017-11-08T17:14:24.469Z,31.20
2017-11-08T17:16:52.556Z,32.30
2017-11-08T17:19:20.661Z,32.40
2017-11-08T17:21:48.749Z,32.30
2017-11-08T17:24:16.855Z,32.10
2017-11-08T17:26:44.935Z,33.70
2017-11-08T17:29:13.897Z,32.20
2017-11-08T17:31:41.989Z,32.70
2017-11-08T17:34:10.076Z,33.00
2017-11-08T17:36:38.156Z,34.40
2017-11-08T17:39:06.241Z,33.10
2017-11-08T17:41:35.094Z,33.00
2017-11-08T17:44:03.174Z,33.00
2017-11-08T17:46:31.266Z,33.20
2017-11-08T17:48:59.340Z,33.30
2017-11-08T17:51:27.417Z,35.00
2017-11-08T17:53:56.301Z,34.80
2017-11-08T17:56:24.484Z,35.50
2017-11-08T17:58:53.340Z,35.30
2017-11-08T18:01:21.426Z,35.30
2017-11-08T18:03:49.497Z,34.80
2017-11-08T18:06:17.572Z,35.50
2017-11-08T18:08:45.658Z,35.80
2017-11-08T18:11:13.732Z,35.30
2017-11-08T18:13:41.846Z,36.30
2017-11-08T18:16:10.681Z,37.50
2017-11-08T18:18:38.777Z,36.70
2017-11-08T18:21:07.629Z,36.40
2017-11-08T18:23:35.705Z,36.20
2017-11-08T18:26:03.790Z,37.50
2017-11-08T18:28:31.870Z,37.50
2017-11-08T18:30:59.947Z,37.90
2017-11-08T18:33:28.025Z,38.30
2017-11-08T18:35:56.102Z,39.20
2017-11-08T18:38:24.936Z,41.10
2017-11-08T18:40:53.017Z,40.90
2017-11-08T18:43:21.089Z,40.90
2017-11-08T18:45:49.209Z,42.50
2017-11-08T18:48:17.283Z,41.00
2017-11-08T18:50:46.142Z,42.90
2017-11-08T18:53:14.237Z,42.80
2017-11-08T18:55:42.315Z,42.90
2017-11-08T18:58:11.173Z,42.80
2017-11-08T19:00:39.249Z,42.80
2017-11-08T19:03:07.345Z,43.60
2017-11-08T19:05:35.422Z,45.40
2017-11-08T19:08:03.509Z,45.10
2017-11-08T19:10:32.359Z,45.40
2017-11-08T19:13:00.440Z,45.40
2017-11-08T19:15:28.529Z,46.80
2017-11-08T19:17:56.673Z,47.50
2017-11-08T19:20:24.751Z,48.60
2017-11-08T19:22:52.822Z,48.50
2017-11-08T19:25:22.048Z,50.00
2017-11-08T19:27:50.136Z,51.50
2017-11-08T19:30:19.577Z,51.20
2017-11-08T19:32:47.653Z,51.20
2017-11-08T19:35:15.742Z,53.10
2017-11-08T19:37:43.813Z,53.40
2017-11-08T19:40:11.905Z,53.90
2017-11-08T19:42:39.993Z,53.70
2017-11-08T19:45:08.828Z,55.90
2017-11-08T19:47:36.912Z,55.30
2017-11-08T19:50:05.769Z,55.70
2017-11-08T19:52:33.842Z,55.70
2017-11-08T19:55:01.908Z,55.80
2017-11-08T19:57:29.993Z,57.60
2017-11-08T19:59:58.076Z,55.50
2017-11-08T20:02:26.194Z,55.60
2017-11-08T20:04:54.299Z,55.20
2017-11-08T20:07:23.139Z,55.10
2017-11-08T20:09:51.223Z,55.10
2017-11-08T20:12:19.328Z,54.60
2017-11-08T20:14:48.470Z,53.30
2017-11-08T20:17:16.597Z,53.30
2017-11-08T20:19:45.497Z,54.10
2017-11-08T20:22:14.352Z,53.90
2017-11-08T20:24:42.426Z,53.90
2017-11-08T20:27:10.509Z,55.30
2017-11-08T20:29:38.594Z,55.20
2017-11-08T20:32:07.437Z,54.40
2017-11-08T20:34:35.521Z,54.30
2017-11-08T20:37:03.648Z,54.50
2017-11-08T20:39:31.753Z,55.20
2017-11-08T20:42:00.583Z,54.70
2017-11-08T20:44:28.682Z,54.70
2017-11-08T20:46:56.752Z,54.10
2017-11-08T20:49:25.603Z,53.90
2017-11-08T20:51:53.670Z,53.90
2017-11-08T20:54:21.825Z,53.70
2017-11-08T20:56:49.901Z,54.10
2017-11-08T20:59:17.979Z,55.90
2017-11-08T21:01:46.062Z,57.80
2017-11-08T21:04:14.137Z,58.80
2017-11-08T21:06:42.211Z,58.80
2017-11-08T21:09:10.294Z,59.50
2017-11-08T21:11:38.376Z,59.50
2017-11-08T21:14:06.457Z,58.60
2017-11-08T21:16:35.322Z,60.20
2017-11-08T21:19:03.389Z,60.20
2017-11-08T21:21:31.481Z,59.30
2017-11-08T21:23:59.543Z,57.80
2017-11-08T21:26:27.643Z,58.60
2017-11-08T21:28:56.577Z,58.00
2017-11-08T21:31:24.649Z,57.90
2017-11-08T21:33:53.501Z,56.30
2017-11-08T21:36:22.342Z,56.80
2017-11-08T21:38:50.423Z,56.80
2017-11-08T21:41:18.498Z,56.50
2017-11-08T21:43:46.581Z,56.50
2017-11-08T21:46:14.656Z,56.70
2017-11-08T21:48:42.769Z,57.00
2017-11-08T21:51:10.843Z,57.90
2017-11-08T21:53:38.958Z,57.90
2017-11-08T21:56:07.076Z,57.90
2017-11-08T21:58:35.937Z,58.40
2017-11-08T22:01:04.012Z,58.40
2017-11-08T22:03:32.085Z,58.90
2017-11-08T22:06:00.156Z,59.50
2017-11-08T22:08:28.237Z,59.70
2017-11-08T22:10:56.323Z,60.00
2017-11-08T22:13:25.273Z,58.80
2017-11-08T22:15:53.360Z,58.80
2017-11-08T22:18:21.440Z,58.60
2017-11-08T22:20:49.536Z,58.50
2017-11-08T22:23:17.668Z,58.80
2017-11-08T22:25:45.745Z,58.70
2017-11-08T22:28:13.856Z,58.90
2017-11-08T22:30:41.976Z,59.30
2017-11-08T22:33:10.049Z,58.70
2017-11-08T22:35:38.256Z,58.20
2017-11-08T22:38:06.329Z,58.90
2017-11-08T22:40:34.408Z,60.20
2017-11-08T22:43:02.503Z,61.10
2017-11-08T22:45:31.320Z,62.40
2017-11-08T22:47:59.397Z,62.30
2017-11-08T22:50:28.231Z,66.00
2017-11-08T22:52:56.303Z,66.00
2017-11-08T22:55:24.441Z,66.50
2017-11-08T22:57:52.524Z,66.10
2017-11-08T23:00:20.637Z,66.00
2017-11-08T23:02:49.505Z,65.40
2017-11-08T23:05:17.948Z,65.40
2017-11-08T23:07:46.025Z,66.00
2017-11-08T23:10:14.927Z,65.40
2017-11-08T23:12:42.989Z,64.60
2017-11-08T23:15:11.083Z,64.30
2017-11-08T23:17:39.181Z,64.60
2017-11-08T23:20:07.252Z,64.50
2017-11-08T23:22:35.331Z,64.70
2017-11-08T23:25:04.224Z,64.90
2017-11-08T23:27:33.061Z,64.40
2017-11-08T23:30:01.145Z,64.20
2017-11-08T23:32:29.247Z,63.50
2017-11-08T23:34:57.350Z,62.80
2017-11-08T23:37:25.401Z,62.40
2017-11-08T23:39:53.645Z,61.70
2017-11-08T23:42:21.725Z,61.40
2017-11-08T23:44:49.810Z,60.90
2017-11-08T23:47:17.885Z,61.10
2017-11-08T23:49:45.956Z,61.50
2017-11-08T23:52:15.961Z,61.30
2017-11-08T23:54:46.918Z,61.40
2017-11-08T23:57:18.885Z,62.20
2017-11-08T23:59:49.393Z,62.30
